OEJN/JED METAR and TAF weather

Enter ICAO airport designator
Station Type Date Time Source
OEJN METAR 2019/12/09 06:00 UTC NOAA

OEJN 090600Z 02010KT CAVOK 25/11 Q1015 NOSIG


Station Type Date Time Source
OEJN Decoded METAR 2019/12/09 06:00 UTC NOAA

Jeddah King Abdul Aziz International Airport , Saudi Arabia (OEJN) 21-42N 039-11E 17M
Dec 09, 2019 - 01:00 AM EST / 2019.12.09 0600 UTC
Wind: from the NNE (020 degrees) at 12 MPH (10 KT):0
Visibility: greater than 7 mile(s):0
Temperature: 77 F (25 C)
Dew Point: 51 F (11 C)
Relative Humidity: 41%
Pressure (altimeter): 29.97 in. Hg (1015 hPa)
ob: OEJN 090600Z 02010KT CAVOK 25/11 Q1015 NOSIG
cycle: 6

Station Type Date Time Source
OEJN TAF 2019/12/09 06:06 UTC NOAA

TAF OEJN 090500Z 0906/1012 02010KT CAVOK
BECMG 0920/0922 03009KT

Example: see airport list